Time;durP1;ratioP1;P1;durP2;ratioP2;P2;SDS_P1;SDS_P2;PMS_P1;PMS_P2;Temp;Humidity;BMP_temperature;BMP_pressure;BME280_temperature;BME280_humidity;BME280_pressure;Samples;Min_cycle;Max_cycle;Signal;HPM_P1;HPM_P2
2022/12/30 00:04:56;;;;;;;11.75;2.05;;;;;;;6.07;71.41;99811.50;10394973;28;20527;-78
2022/12/30 00:09:59;;;;;;;14.20;3.08;;;;;;;5.95;72.36;99807.91;10368603;28;20050;-79
2022/12/30 00:36:25;;;;;;;17.30;3.57;;;;;;;6.05;72.39;99841.91;10382517;28;20076;-77
2022/12/30 00:46:49;;;;;;;12.25;3.05;;;;;;;5.91;72.80;99851.72;10384810;28;20124;-78
2022/12/30 00:57:13;;;;;;;12.82;2.70;;;;;;;6.21;71.90;99863.84;10404020;28;20487;-79
2022/12/30 01:02:16;;;;;;;12.13;2.70;;;;;;;6.02;72.57;99866.13;10405662;28;20053;-77
2022/12/30 01:07:21;;;;;;;12.13;2.42;;;;;;;6.06;72.20;99871.13;10434304;28;20040;-75
2022/12/30 01:12:24;;;;;;;13.90;2.00;;;;;;;5.88;72.45;99896.41;10420017;28;20108;-78
2022/12/30 01:17:29;;;;;;;10.25;1.85;;;;;;;5.91;72.59;99891.69;10410322;28;20052;-78
2022/12/30 01:22:33;;;;;;;14.00;2.05;;;;;;;5.81;73.12;99909.28;10411323;28;20053;-79
2022/12/30 01:27:36;;;;;;;8.55;1.52;;;;;;;6.29;71.41;99898.00;10399692;28;20104;-79
2022/12/30 01:32:39;;;;;;;10.50;2.13;;;;;;;6.00;71.79;99903.53;10395332;28;20046;-77
2022/12/30 01:37:43;;;;;;;12.68;2.33;;;;;;;5.96;72.14;99904.72;10403942;28;20844;-78
2022/12/30 01:42:46;;;;;;;16.10;2.47;;;;;;;6.47;70.72;99909.16;10406258;28;20054;-77
2022/12/30 01:47:54;;;;;;;6.97;1.70;;;;;;;6.16;71.08;99930.84;10389819;28;20455;-75
2022/12/30 01:53:03;;;;;;;10.25;1.50;;;;;;;6.17;71.06;99951.25;10402317;28;20088;-76
2022/12/30 01:58:12;;;;;;;13.98;2.53;;;;;;;6.15;71.88;99938.97;10381661;28;20050;-77
2022/12/30 02:03:15;;;;;;;10.05;2.00;;;;;;;5.83;72.72;99941.19;10373575;28;20487;-77
2022/12/30 02:08:21;;;;;;;9.30;2.05;;;;;;;5.90;72.42;99940.66;10393715;28;20495;-79
2022/12/30 02:13:24;;;;;;;8.38;1.98;;;;;;;6.04;71.64;99945.03;10391413;28;20078;-77
2022/12/30 02:18:36;;;;;;;9.45;1.85;;;;;;;5.68;73.04;99943.94;10387162;28;20506;-79
2022/12/30 02:23:57;;;;;;;15.43;2.35;;;;;;;5.75;72.61;99935.53;10396323;28;20065;-78
2022/12/30 02:29:27;;;;;;;10.07;2.08;;;;;;;5.81;72.71;99945.75;10388288;28;20132;-80
2022/12/30 02:34:40;;;;;;;11.23;2.00;;;;;;;5.91;71.57;99952.16;10375602;28;20038;-78
2022/12/30 02:39:48;;;;;;;13.50;2.70;;;;;;;5.92;72.05;99943.22;10392272;28;20080;-79
2022/12/30 02:44:56;;;;;;;10.85;2.15;;;;;;;6.14;71.14;99943.44;10396429;28;20510;-78
2022/12/30 02:55:39;;;;;;;6.50;1.98;;;;;;;5.93;71.74;99956.44;10238401;29;20043;-78
2022/12/30 03:06:30;;;;;;;11.27;1.63;;;;;;;6.11;71.04;99948.13;10412585;28;20128;-78
2022/12/30 03:11:44;;;;;;;13.15;2.40;;;;;;;5.98;71.50;99955.25;10396708;28;20053;-77
2022/12/30 03:16:52;;;;;;;10.20;1.60;;;;;;;5.80;72.02;99958.22;10411902;28;20038;-78
2022/12/30 03:21:57;;;;;;;10.60;2.17;;;;;;;5.88;71.44;99961.22;10394713;28;20557;-77
2022/12/30 03:27:04;;;;;;;14.27;2.72;;;;;;;5.90;71.44;99971.81;10401958;28;20045;-78
2022/12/30 03:32:11;;;;;;;13.70;2.47;;;;;;;5.76;71.58;99975.41;10393223;28;20052;-78
2022/12/30 03:37:19;;;;;;;12.57;1.85;;;;;;;5.99;71.04;99980.97;10373072;28;20113;-78
2022/12/30 03:42:23;;;;;;;11.30;1.95;;;;;;;5.82;71.06;99990.97;10398757;28;20052;-79
2022/12/30 03:47:26;;;;;;;11.25;2.33;;;;;;;5.85;71.26;99987.25;10415602;28;20069;-79
2022/12/30 03:52:30;;;;;;;11.13;2.25;;;;;;;5.78;71.47;99991.28;10413470;28;20045;-79
2022/12/30 03:57:33;;;;;;;14.50;2.33;;;;;;;5.38;72.54;99984.13;10381986;28;20042;-77
2022/12/30 04:02:38;;;;;;;9.30;1.65;;;;;;;5.73;71.23;99976.47;10394691;28;20081;-79
2022/12/30 04:07:42;;;;;;;9.70;1.60;;;;;;;5.40;72.54;99984.91;10423743;28;20049;-79
2022/12/30 04:12:45;;;;;;;10.05;1.65;;;;;;;5.43;72.07;99995.34;10400973;28;20103;-79
2022/12/30 04:17:48;;;;;;;16.67;2.85;;;;;;;5.76;71.48;99991.41;10406638;28;20487;-78
2022/12/30 04:22:52;;;;;;;11.80;2.63;;;;;;;5.83;71.22;99999.81;10390392;28;20289;-79
2022/12/30 04:27:55;;;;;;;17.77;2.45;;;;;;;5.68;71.88;100010.56;10418945;28;20065;-77
2022/12/30 04:32:59;;;;;;;18.38;2.67;;;;;;;5.72;71.92;100017.38;10406305;28;20049;-78
2022/12/30 04:38:03;;;;;;;10.25;1.77;;;;;;;5.79;71.52;100009.84;10403222;28;20112;-77
2022/12/30 04:43:06;;;;;;;11.75;2.40;;;;;;;5.93;71.10;100015.09;10423455;28;20053;-77
2022/12/30 04:48:09;;;;;;;8.43;1.85;;;;;;;5.63;71.99;99998.50;10420488;28;20037;-79
2022/12/30 04:53:13;;;;;;;14.02;2.10;;;;;;;6.01;70.35;100011.91;10415828;28;20037;-79
2022/12/30 04:58:16;;;;;;;11.23;1.92;;;;;;;5.99;70.28;100019.16;10418653;28;20053;-78
2022/12/30 05:03:19;;;;;;;12.52;2.05;;;;;;;5.92;70.21;100010.72;10403095;28;20049;-76
2022/12/30 05:08:24;;;;;;;16.73;3.45;;;;;;;5.79;70.75;100027.63;10441640;28;20049;-77
2022/12/30 05:13:30;;;;;;;13.00;2.15;;;;;;;5.66;70.54;100028.44;10419071;28;20044;-75
2022/12/30 05:18:32;;;;;;;14.65;1.85;;;;;;;5.47;71.41;100019.97;10412493;28;20088;-79
2022/12/30 05:28:57;;;;;;;12.25;1.77;;;;;;;5.37;71.69;100027.69;10414352;28;20073;-78
2022/12/30 05:34:00;;;;;;;9.57;2.17;;;;;;;5.32;71.73;100021.84;10405193;28;20042;-79
2022/12/30 05:39:13;;;;;;;15.40;1.80;;;;;;;5.32;71.65;100015.63;10419438;28;20096;-79
2022/12/30 05:44:16;;;;;;;9.57;1.92;;;;;;;5.36;71.38;100027.81;10417978;28;20065;-78
2022/12/30 05:49:18;;;;;;;10.18;2.03;;;;;;;5.16;71.95;100018.44;10413471;28;20034;-76
2022/12/30 05:54:22;;;;;;;9.02;1.98;;;;;;;5.08;71.94;100021.59;10420389;28;20053;-77
2022/12/30 05:59:25;;;;;;;11.23;2.10;;;;;;;5.10;72.00;100026.81;10420303;28;20087;-80
2022/12/30 06:04:28;;;;;;;13.10;2.33;;;;;;;5.02;72.23;100032.66;10406869;28;20045;-79
2022/12/30 06:09:32;;;;;;;12.88;2.05;;;;;;;4.94;72.48;100027.78;10429012;28;20038;-79
2022/12/30 06:14:35;;;;;;;12.07;2.10;;;;;;;4.96;72.31;100025.00;10439131;28;20061;-80
2022/12/30 06:19:38;;;;;;;12.25;1.80;;;;;;;4.91;72.29;100035.94;10389725;28;20049;-78
2022/12/30 06:24:42;;;;;;;12.82;2.50;;;;;;;4.90;72.38;100028.91;10405355;28;20046;-79
2022/12/30 06:29:45;;;;;;;10.52;2.50;;;;;;;4.79;72.66;100029.56;10403020;28;20042;-78
2022/12/30 06:34:47;;;;;;;21.30;2.28;;;;;;;4.81;72.78;100034.81;10416664;28;20422;-79
2022/12/30 06:39:52;;;;;;;11.07;1.77;;;;;;;4.55;73.50;100039.06;10393022;28;20415;-77
2022/12/30 06:44:54;;;;;;;11.98;2.20;;;;;;;4.82;72.64;100021.38;10396998;28;20122;-77
2022/12/30 06:49:57;;;;;;;14.48;1.98;;;;;;;4.82;72.48;100029.38;10402472;28;20553;-78
2022/12/30 06:55:01;;;;;;;10.82;2.20;;;;;;;4.88;72.25;100022.81;10388280;28;20046;-78
2022/12/30 07:00:06;;;;;;;18.55;2.45;;;;;;;4.51;74.12;100040.22;10419234;28;20037;-76
2022/12/30 07:05:09;;;;;;;14.57;2.83;;;;;;;4.67;73.09;100029.50;10429659;28;20046;-77
2022/12/30 07:10:14;;;;;;;9.48;2.58;;;;;;;4.77;72.78;100019.97;10404801;28;20053;-80
2022/12/30 07:15:16;;;;;;;7.57;2.03;;;;;;;4.88;72.11;100020.16;10391547;28;20106;-79
2022/12/30 07:20:19;;;;;;;12.85;2.63;;;;;;;4.65;73.16;100012.78;10400959;28;20053;-78
2022/12/30 07:25:23;;;;;;;11.90;3.05;;;;;;;4.84;72.57;100015.97;10407800;28;20513;-78
2022/12/30 07:30:27;;;;;;;9.70;2.67;;;;;;;4.68;73.07;100017.91;10394467;28;20533;-78
2022/12/30 07:35:30;;;;;;;7.80;2.10;;;;;;;4.38;73.79;100022.34;10414682;28;20049;-75
2022/12/30 07:40:36;;;;;;;15.30;3.08;;;;;;;4.82;72.67;100029.38;10427036;28;20049;-79
2022/12/30 07:45:39;;;;;;;17.23;3.25;;;;;;;4.86;72.68;100018.56;10389929;28;20056;-79
2022/12/30 07:50:42;;;;;;;12.70;2.83;;;;;;;4.76;72.66;100023.59;10392688;28;20038;-78
2022/12/30 07:55:46;;;;;;;11.60;1.90;;;;;;;4.76;72.58;100020.94;10393171;28;20056;-78
2022/12/30 08:00:49;;;;;;;14.93;2.67;;;;;;;4.91;72.06;100014.66;10396071;28;20073;-77
2022/12/30 08:05:51;;;;;;;12.00;3.50;;;;;;;5.03;71.77;100011.22;10420062;28;20042;-79
2022/12/30 08:10:57;;;;;;;9.38;2.53;;;;;;;5.06;71.35;100000.38;10417900;28;20092;-79
2022/12/30 08:16:03;;;;;;;18.80;3.50;;;;;;;5.01;71.96;100010.47;10431877;28;20071;-79
2022/12/30 08:21:08;;;;;;;14.23;2.95;;;;;;;5.22;71.14;100015.38;10393023;28;20053;-78
2022/12/30 08:26:14;;;;;;;10.95;3.25;;;;;;;5.47;69.66;100011.97;10354570;28;20136;-78
2022/12/30 08:31:19;;;;;;;13.23;2.88;;;;;;;5.56;69.73;100018.50;10370509;28;20805;-76
2022/12/30 08:36:24;;;;;;;9.57;2.55;;;;;;;5.48;69.22;100017.19;10374245;28;20503;-78
2022/12/30 08:41:30;;;;;;;11.93;2.45;;;;;;;5.70;68.82;100005.09;10355990;28;20618;-77
2022/12/30 08:46:38;;;;;;;10.13;3.72;;;;;;;5.62;68.64;99991.44;10356339;28;20049;-77
2022/12/30 08:51:41;;;;;;;11.15;2.83;;;;;;;5.63;68.52;99977.19;10370927;28;20493;-77
2022/12/30 08:56:48;;;;;;;11.13;1.90;;;;;;;5.84;67.66;99972.19;10355743;28;20128;-76
2022/12/30 09:01:51;;;;;;;12.95;3.03;;;;;;;5.97;67.49;99956.22;10357405;28;20049;-77
2022/12/30 09:06:54;;;;;;;13.43;3.38;;;;;;;6.20;66.41;99967.97;10361968;28;20794;-78
2022/12/30 09:11:58;;;;;;;10.65;2.28;;;;;;;6.00;67.00;99972.88;10375122;28;20049;-78
2022/12/30 09:17:01;;;;;;;10.77;3.20;;;;;;;5.92;67.25;99981.41;10360348;28;21013;-78
2022/12/30 09:22:03;;;;;;;11.00;2.00;;;;;;;6.21;66.18;99973.19;10373587;28;20081;-77
2022/12/30 09:27:08;;;;;;;5.70;1.58;;;;;;;6.46;65.33;99961.66;10395248;28;20128;-79
2022/12/30 09:32:11;;;;;;;7.68;1.73;;;;;;;6.42;65.61;99952.19;10367655;28;21264;-78
2022/12/30 09:37:14;;;;;;;11.68;1.63;;;;;;;6.45;65.19;99940.44;10354067;28;20063;-78
2022/12/30 09:47:51;;;;;;;5.93;1.73;;;;;;;6.78;64.47;99915.81;10340457;28;20048;-78
2022/12/30 09:52:59;;;;;;;6.88;1.20;;;;;;;6.63;64.83;99923.94;10375285;28;20136;-79
2022/12/30 09:58:09;;;;;;;5.85;1.38;;;;;;;6.67;65.11;99916.59;10370159;28;20084;-77
2022/12/30 10:03:17;;;;;;;6.35;1.42;;;;;;;6.52;65.53;99899.00;10359426;28;20167;-78
2022/12/30 10:08:57;;;;;;;8.73;2.45;;;;;;;6.53;65.32;99893.56;10361813;28;20053;-78
2022/12/30 10:14:13;;;;;;;5.47;1.63;;;;;;;6.57;65.48;99881.69;10373125;28;20127;-78
2022/12/30 10:19:26;;;;;;;6.03;1.20;;;;;;;6.84;64.76;99869.97;10355766;28;20659;-78
2022/12/30 10:24:44;;;;;;;9.20;1.90;;;;;;;6.87;64.53;99858.22;10364828;28;20046;-79
2022/12/30 10:29:48;;;;;;;6.88;1.10;;;;;;;6.79;64.22;99848.94;10355013;28;20053;-79
2022/12/30 10:35:02;;;;;;;;;;;;;;;6.61;64.43;99842.31;10360599;28;20109;-79
2022/12/30 10:40:10;;;;;;;3.80;1.23;;;;;;;6.90;64.10;99820.66;10349629;28;19936;-78
2022/12/30 10:45:50;;;;;;;11.02;2.38;;;;;;;7.14;63.36;99813.47;10347547;28;21239;-79
2022/12/30 10:50:54;;;;;;;3.88;1.25;;;;;;;7.02;63.59;99785.00;10358017;28;20042;-78
2022/12/30 10:56:00;;;;;;;4.57;1.17;;;;;;;7.19;63.37;99765.03;10358398;28;20049;-79
2022/12/30 11:01:04;;;;;;;4.90;1.33;;;;;;;7.30;63.08;99734.84;10341411;28;21178;-79
2022/12/30 11:06:20;;;;;;;5.63;1.63;;;;;;;7.28;63.59;99725.09;10344148;28;20218;-79
2022/12/30 11:14:42;;;;;;;9.63;1.65;;;;;;;7.56;62.71;99714.91;10403489;28;20080;-78
2022/12/30 11:17:23;;;;;;;8.95;1.77;;;;;;;7.94;62.16;99677.09;10368486;28;20712;-77
2022/12/30 11:22:26;;;;;;;3.72;0.90;;;;;;;7.81;62.14;99665.69;10348195;28;20427;-79
2022/12/30 11:27:38;;;;;;;5.95;1.27;;;;;;;7.82;62.43;99653.19;10351229;28;20046;-78
2022/12/30 11:32:46;;;;;;;7.85;1.70;;;;;;;7.99;62.21;99639.28;10356871;28;20046;-80
2022/12/30 11:37:49;;;;;;;6.30;1.35;;;;;;;8.11;61.66;99630.22;10367417;28;20054;-79
2022/12/30 11:43:06;;;;;;;6.07;1.38;;;;;;;8.32;61.55;99621.41;10372543;28;20525;-78
2022/12/30 11:48:24;;;;;;;4.88;1.42;;;;;;;8.44;60.77;99611.50;10352500;28;20064;-79
2022/12/30 11:53:31;;;;;;;6.20;2.15;;;;;;;8.49;60.62;99590.56;10358089;28;20108;-78
2022/12/30 11:58:35;;;;;;;5.82;1.73;;;;;;;8.22;61.00;99596.38;10356415;28;20065;-79
2022/12/30 12:03:49;;;;;;;5.20;1.20;;;;;;;8.12;61.20;99589.16;10377243;28;20045;-76
2022/12/30 12:08:59;;;;;;;6.22;1.30;;;;;;;7.92;61.29;99597.97;10386833;28;20052;-76
2022/12/30 12:14:10;;;;;;;3.88;1.35;;;;;;;7.85;61.30;99602.97;10398544;28;21267;-76
2022/12/30 12:19:22;;;;;;;8.05;2.15;;;;;;;7.91;61.43;99604.28;10398230;28;20049;-76
2022/12/30 12:24:30;;;;;;;3.50;1.00;;;;;;;7.84;61.64;99587.03;10415509;28;20056;-76
2022/12/30 12:29:34;;;;;;;4.45;1.15;;;;;;;7.54;61.95;99580.53;10382460;28;20093;-75
2022/12/30 12:34:51;;;;;;;3.00;1.10;;;;;;;7.63;62.02;99609.22;10400798;28;20121;-76
2022/12/30 12:40:11;;;;;;;6.93;1.80;;;;;;;7.60;61.96;99574.72;10382392;28;20046;-77
2022/12/30 12:45:34;;;;;;;4.40;1.23;;;;;;;7.39;62.56;99565.78;10397703;28;20046;-77
2022/12/30 12:50:52;;;;;;;4.25;1.50;;;;;;;7.79;61.83;99562.50;10364467;28;20049;-80
2022/12/30 12:56:23;;;;;;;5.82;1.20;;;;;;;7.76;61.79;99528.00;10384203;28;20048;-78
2022/12/30 13:01:35;;;;;;;5.50;1.65;;;;;;;7.81;61.38;99509.75;10404207;28;20083;-77
2022/12/30 13:06:44;;;;;;;;;;;;;;;7.55;62.10;99479.88;10378298;28;20518;-77
2022/12/30 13:11:53;;;;;;;5.95;1.38;;;;;;;7.47;62.92;99433.25;10353307;28;20004;-79
2022/12/30 13:17:00;;;;;;;7.60;1.48;;;;;;;7.72;62.42;99441.88;10354026;28;20049;-80
2022/12/30 13:22:08;;;;;;;8.77;1.38;;;;;;;7.54;62.37;99412.19;10359723;28;20056;-79
2022/12/30 13:27:21;;;;;;;4.80;1.83;;;;;;;7.51;62.73;99407.09;10360343;28;20049;-79
2022/12/30 13:32:34;;;;;;;4.88;1.13;;;;;;;7.62;62.70;99387.50;10363927;28;20049;-79
2022/12/30 13:37:44;;;;;;;8.00;1.60;;;;;;;7.58;62.88;99364.69;10371467;28;20052;-79
2022/12/30 13:43:00;;;;;;;4.75;1.27;;;;;;;7.59;63.21;99351.19;10386984;28;20080;-78
2022/12/30 13:48:12;;;;;;;14.38;1.80;;;;;;;7.61;63.29;99332.34;10360701;28;20045;-77
2022/12/30 13:53:43;;;;;;;8.30;1.50;;;;;;;7.60;63.20;99323.50;10368649;28;20130;-78
2022/12/30 13:58:50;;;;;;;11.32;1.27;;;;;;;7.50;63.28;99293.19;10374886;28;20664;-77
2022/12/30 14:04:21;;;;;;;3.35;1.35;;;;;;;7.46;63.37;99271.25;10363740;28;20049;-79
2022/12/30 14:09:26;;;;;;;4.78;1.15;;;;;;;7.56;63.02;99265.94;10356182;28;20072;-78
2022/12/30 14:14:30;;;;;;;5.47;1.00;;;;;;;7.47;62.88;99240.00;10352398;28;20180;-78
2022/12/30 14:19:51;;;;;;;3.72;1.60;;;;;;;7.76;62.67;99231.28;10368168;28;20140;-78
2022/12/30 14:25:03;;;;;;;9.35;1.90;;;;;;;7.60;62.96;99215.75;10353134;28;20049;-78
2022/12/30 14:30:17;;;;;;;3.67;1.65;;;;;;;7.78;62.88;99221.31;10381162;28;20121;-76
2022/12/30 14:35:20;;;;;;;4.72;1.40;;;;;;;7.61;62.86;99209.41;10379129;28;20073;-78
2022/12/30 14:40:31;;;;;;;12.32;3.72;;;;;;;7.66;62.85;99225.91;10368057;28;20049;-79
2022/12/30 14:45:34;;;;;;;4.63;1.75;;;;;;;7.67;63.38;99219.56;10377721;28;20068;-78
2022/12/30 14:50:37;;;;;;;9.10;2.03;;;;;;;7.81;63.23;99224.53;10372198;28;20069;-78
2022/12/30 14:55:48;;;;;;;7.53;1.67;;;;;;;7.50;64.06;99199.66;10364165;28;20046;-78
2022/12/30 15:00:52;;;;;;;3.70;1.30;;;;;;;7.53;64.03;99227.94;10373893;28;20056;-79
2022/12/30 15:05:58;;;;;;;10.60;2.20;;;;;;;7.75;64.25;99210.88;10360270;28;20041;-78
2022/12/30 15:11:05;;;;;;;4.97;1.23;;;;;;;7.82;64.67;99183.47;10370137;28;20116;-79
2022/12/30 15:16:14;;;;;;;4.20;1.33;;;;;;;7.69;65.83;99218.44;10374260;28;20107;-79
2022/12/30 15:21:23;;;;;;;2.30;1.30;;;;;;;7.26;70.77;99142.03;10354103;28;20119;-75
2022/12/30 15:26:28;;;;;;;4.30;2.35;;;;;;;6.93;74.80;99134.28;10354643;28;20159;-77
2022/12/30 15:31:39;;;;;;;4.35;1.45;;;;;;;6.93;75.72;99108.41;10369884;28;20088;-75
2022/12/30 15:36:43;;;;;;;4.25;2.13;;;;;;;6.60;77.42;99109.44;10361227;28;20127;-77
2022/12/30 15:41:48;;;;;;;4.18;1.92;;;;;;;6.53;78.46;99093.13;10369415;28;20056;-77
2022/12/30 15:46:55;;;;;;;4.85;1.55;;;;;;;6.58;79.15;99082.03;10345540;28;20045;-78
2022/12/30 15:52:06;;;;;;;3.60;1.83;;;;;;;6.51;80.72;99081.72;10354997;28;20533;-77
2022/12/30 15:57:16;;;;;;;4.05;2.25;;;;;;;6.35;82.28;99060.84;10351334;28;20045;-78
2022/12/30 16:02:23;;;;;;;2.45;1.90;;;;;;;6.45;83.25;99044.06;10368755;28;20045;-77
2022/12/30 16:07:36;;;;;;;2.60;1.60;;;;;;;6.37;83.70;99048.22;10342109;28;20050;-78
2022/12/30 16:12:46;;;;;;;3.47;1.67;;;;;;;6.47;83.86;99053.59;10370041;28;20188;-77
2022/12/30 16:17:59;;;;;;;3.55;1.45;;;;;;;6.34;84.37;99056.50;10364349;28;20063;-78
2022/12/30 16:23:05;;;;;;;2.72;1.77;;;;;;;6.49;84.50;99040.16;10376429;28;20096;-78
2022/12/30 16:28:35;;;;;;;3.45;1.85;;;;;;;6.57;84.09;99077.69;10349746;28;21271;-77
2022/12/30 16:33:38;;;;;;;1.92;1.60;;;;;;;6.63;85.06;99045.16;10390276;28;20080;-76
2022/12/30 16:38:44;;;;;;;4.90;1.40;;;;;;;6.49;85.66;99049.00;10366042;28;21007;-77
2022/12/30 16:43:50;;;;;;;2.15;1.65;;;;;;;6.35;86.98;99047.50;10364576;28;20055;-77
2022/12/30 16:48:53;;;;;;;4.60;1.80;;;;;;;6.59;87.13;99039.25;10363491;28;20180;-78
2022/12/30 16:53:56;;;;;;;3.95;1.40;;;;;;;6.56;88.21;99044.00;10371609;28;20045;-79
2022/12/30 16:59:00;;;;;;;1.85;1.45;;;;;;;6.65;87.28;99042.34;10361388;28;20056;-78
2022/12/30 17:04:04;;;;;;;2.58;1.90;;;;;;;6.69;88.10;99036.63;10350844;28;21581;-79
2022/12/30 17:09:10;;;;;;;4.22;1.90;;;;;;;6.67;88.74;99029.75;10358918;28;20071;-79
2022/12/30 17:14:14;;;;;;;3.20;1.90;;;;;;;6.73;89.24;99032.72;10371197;28;20511;-80
2022/12/30 17:19:17;;;;;;;2.95;1.38;;;;;;;6.36;91.07;99035.88;10363503;28;20473;-79
2022/12/30 17:24:20;;;;;;;2.38;1.90;;;;;;;6.63;90.21;99037.13;10356573;28;20055;-79
2022/12/30 17:29:25;;;;;;;1.38;1.08;;;;;;;6.65;90.01;99031.69;10358828;28;20045;-80
2022/12/30 17:34:28;;;;;;;2.10;1.40;;;;;;;6.83;89.44;99036.28;10369336;28;20050;-79
2022/12/30 17:39:30;;;;;;;1.88;1.50;;;;;;;6.97;88.90;99021.75;10369374;28;20161;-75
2022/12/30 17:44:34;;;;;;;1.80;1.20;;;;;;;6.94;88.64;99045.19;10376291;28;20196;-79
2022/12/30 17:49:37;;;;;;;1.60;1.15;;;;;;;7.06;88.16;99028.09;10361742;28;20832;-80
2022/12/30 17:54:40;;;;;;;0.98;0.98;;;;;;;7.30;87.98;99030.44;10353389;28;20045;-77
2022/12/30 17:59:44;;;;;;;0.95;0.95;;;;;;;7.36;87.24;99029.06;10354992;28;20049;-77
2022/12/30 18:04:47;;;;;;;2.13;0.80;;;;;;;7.34;87.57;99033.69;10353863;28;20054;-77
2022/12/30 18:09:54;;;;;;;0.73;0.65;;;;;;;7.57;87.02;99035.16;10358419;28;20060;-77
2022/12/30 18:14:59;;;;;;;1.30;0.88;;;;;;;7.84;86.36;99017.56;10346000;28;20068;-76
2022/12/30 18:20:02;;;;;;;2.95;0.50;;;;;;;7.77;84.91;99022.66;10377041;28;20108;-75
2022/12/30 18:25:05;;;;;;;2.35;0.50;;;;;;;8.02;84.24;99031.94;10376193;28;20523;-78
2022/12/30 18:30:16;;;;;;;0.47;0.40;;;;;;;8.13;83.93;99050.53;10361881;28;20081;-78
2022/12/30 18:35:19;;;;;;;1.77;0.60;;;;;;;8.32;82.89;99030.09;10359883;28;20215;-78
2022/12/30 18:40:22;;;;;;;1.08;0.50;;;;;;;8.45;81.85;99032.44;10357472;28;20507;-79
2022/12/30 18:45:26;;;;;;;0.65;0.60;;;;;;;8.65;81.44;99026.13;10365189;28;20057;-79
2022/12/30 18:50:29;;;;;;;1.15;0.45;;;;;;;8.86;80.62;99041.13;10354808;28;20042;-79
2022/12/30 18:55:32;;;;;;;0.77;0.63;;;;;;;8.66;81.22;99041.19;10394919;28;20076;-77
2022/12/30 19:00:38;;;;;;;0.30;0.25;;;;;;;8.38;82.94;99065.13;10381025;28;20061;-78
2022/12/30 19:05:40;;;;;;;0.40;0.40;;;;;;;8.52;82.46;99058.53;10366225;28;20041;-77
2022/12/30 19:10:44;;;;;;;0.40;0.30;;;;;;;8.68;81.18;99075.84;10340374;28;20064;-78
2022/12/30 19:15:48;;;;;;;0.40;0.40;;;;;;;8.92;81.04;99051.28;10350658;28;20050;-78
2022/12/30 19:20:51;;;;;;;0.22;0.20;;;;;;;8.83;82.43;99082.41;10367609;28;21217;-78
2022/12/30 19:25:54;;;;;;;0.43;0.30;;;;;;;8.76;84.23;99058.06;10370810;28;20116;-78
2022/12/30 19:30:59;;;;;;;1.75;0.40;;;;;;;9.08;83.44;99061.34;10362362;28;21125;-79
2022/12/30 19:36:04;;;;;;;0.77;0.50;;;;;;;8.94;84.13;99082.28;10377367;28;20054;-78
2022/12/30 19:41:16;;;;;;;0.52;0.38;;;;;;;9.09;83.62;99061.22;10369307;28;20049;-78
2022/12/30 19:46:21;;;;;;;0.30;0.30;;;;;;;8.90;85.52;99134.41;10372494;28;20135;-78
2022/12/30 19:51:24;;;;;;;1.27;0.75;;;;;;;9.16;84.98;99110.53;10350199;28;20683;-79
2022/12/30 19:56:27;;;;;;;0.98;0.63;;;;;;;9.24;85.81;99115.13;10380522;28;20057;-77
2022/12/30 20:01:39;;;;;;;0.50;0.50;;;;;;;9.11;88.11;99131.56;10381403;28;20041;-78
2022/12/30 20:06:44;;;;;;;0.38;0.38;;;;;;;8.94;88.58;99118.91;10382793;28;20080;-77
2022/12/30 20:11:47;;;;;;;1.05;0.60;;;;;;;9.21;88.01;99116.28;10379092;28;20074;-77
2022/12/30 20:16:51;;;;;;;1.10;0.50;;;;;;;9.31;87.61;99102.84;10382456;28;20048;-77
2022/12/30 20:21:56;;;;;;;0.73;0.70;;;;;;;9.37;86.17;99114.81;10373582;28;20049;-78
2022/12/30 20:27:00;;;;;;;0.60;0.60;;;;;;;9.68;84.95;99126.97;10365569;28;20049;-77
2022/12/30 20:32:05;;;;;;;0.93;0.80;;;;;;;9.79;84.33;99112.50;10379765;28;20061;-79
2022/12/30 20:37:09;;;;;;;0.65;0.63;;;;;;;9.93;83.39;99101.28;10368729;28;20053;-79
2022/12/30 20:42:12;;;;;;;0.50;0.50;;;;;;;10.12;82.67;99111.03;10374888;28;20064;-78
2022/12/30 20:47:16;;;;;;;1.52;0.65;;;;;;;9.80;83.10;99149.03;10344888;28;20056;-77
2022/12/30 20:52:19;;;;;;;1.00;0.80;;;;;;;10.06;82.35;99149.19;10369767;28;20140;-77
2022/12/30 20:57:26;;;;;;;0.47;0.47;;;;;;;10.10;82.30;99144.38;10413589;28;20092;-77
2022/12/30 21:02:30;;;;;;;;;;;;;;;10.23;81.99;99150.22;10379800;28;20105;-79
2022/12/30 21:07:33;;;;;;;0.60;0.60;;;;;;;10.38;80.91;99161.28;10374777;28;19980;-78
2022/12/30 21:12:36;;;;;;;0.85;0.63;;;;;;;10.38;80.90;99162.09;10369048;28;20157;-78
2022/12/30 21:17:40;;;;;;;1.75;0.75;;;;;;;10.53;80.31;99140.09;10364014;28;20054;-79
2022/12/30 21:22:43;;;;;;;0.77;0.63;;;;;;;10.53;80.69;99173.19;10371681;28;21584;-79
2022/12/30 21:27:46;;;;;;;0.95;0.90;;;;;;;10.60;80.41;99171.53;10376653;28;20136;-79
2022/12/30 21:32:51;;;;;;;1.30;0.80;;;;;;;10.71;79.68;99181.22;10371890;28;20070;-78
2022/12/30 22:02:43;;;;;;;1.73;1.27;;;;;;;10.64;80.65;99184.66;10374884;28;20109;-79
2022/12/30 22:04:53;;;;;;;1.75;1.13;;;;;;;10.97;80.89;99228.75;10391047;28;20050;-77
2022/12/30 22:09:56;;;;;;;1.10;1.00;;;;;;;11.17;80.08;99227.63;10362843;28;20054;-78
2022/12/30 22:14:59;;;;;;;0.95;0.95;;;;;;;11.16;80.14;99251.97;10371807;28;20089;-79
2022/12/30 22:20:04;;;;;;;4.22;1.35;;;;;;;11.19;79.96;99248.97;10352564;28;20050;-77
2022/12/30 22:25:08;;;;;;;1.63;1.23;;;;;;;11.32;78.91;99256.63;10360726;28;20049;-78
2022/12/30 22:30:12;;;;;;;1.55;1.45;;;;;;;11.45;79.48;99265.13;10364179;28;21224;-79
2022/12/30 22:35:17;;;;;;;0.88;0.88;;;;;;;11.24;80.20;99266.34;10372861;28;20172;-78
2022/12/30 22:40:21;;;;;;;1.08;1.08;;;;;;;11.23;80.90;99277.22;10358174;28;20049;-77
2022/12/30 22:45:25;;;;;;;1.40;1.30;;;;;;;11.61;80.04;99284.06;10359740;28;20119;-78
2022/12/30 22:50:30;;;;;;;1.30;1.20;;;;;;;11.41;81.25;99283.44;10368069;28;20057;-77
2022/12/30 22:55:36;;;;;;;2.78;1.52;;;;;;;11.55;80.14;99281.19;10377005;28;20042;-79
2022/12/30 23:00:39;;;;;;;1.73;1.17;;;;;;;11.63;80.19;99287.47;10394579;28;20049;-78
2022/12/30 23:05:44;;;;;;;1.60;1.50;;;;;;;11.63;80.61;99294.69;10387796;28;20329;-77
2022/12/30 23:10:47;;;;;;;1.55;1.38;;;;;;;11.48;80.93;99289.00;10370593;28;20434;-78
2022/12/30 23:16:08;;;;;;;1.45;1.35;;;;;;;11.78;80.00;99294.94;10371687;28;20077;-77
2022/12/30 23:21:15;;;;;;;2.10;1.00;;;;;;;11.51;80.51;99320.97;10380008;28;20046;-76
2022/12/30 23:26:18;;;;;;;1.30;1.20;;;;;;;11.78;80.04;99292.25;10375046;28;20046;-77
2022/12/30 23:31:21;;;;;;;1.77;1.67;;;;;;;11.83;80.32;99287.25;10395734;28;20053;-76
2022/12/30 23:36:26;;;;;;;2.03;1.20;;;;;;;11.82;81.05;99270.25;10398106;28;20052;-77
2022/12/30 23:41:29;;;;;;;1.73;1.55;;;;;;;11.82;80.87;99321.38;10400068;28;20411;-76
2022/12/30 23:46:32;;;;;;;1.85;1.75;;;;;;;11.53;83.15;99312.75;10369908;28;20128;-79
2022/12/30 23:51:36;;;;;;;1.73;1.63;;;;;;;11.53;83.99;99310.91;10373620;28;20053;-79
2022/12/30 23:56:40;;;;;;;2.13;1.90;;;;;;;11.47;84.91;99307.00;10372597;28;20092;-77
